createdAt,value
2023-04-06T00:00:51.567Z,11.07
2023-04-06T00:03:18.689Z,10.48
2023-04-06T00:05:46.017Z,11.48
2023-04-06T00:08:13.179Z,10.27
2023-04-06T00:10:39.950Z,10.93
2023-04-06T00:13:08.022Z,9.32
2023-04-06T00:15:35.498Z,10.27
2023-04-06T00:18:04.437Z,9.82
2023-04-06T00:20:31.385Z,10.05
2023-04-06T00:22:58.022Z,9.32
2023-04-06T00:25:24.816Z,8.10
2023-04-06T00:27:51.478Z,8.02
2023-04-06T00:30:18.344Z,7.93
2023-04-06T00:32:45.029Z,7.63
2023-04-06T00:35:11.864Z,7.43
2023-04-06T00:37:38.551Z,7.07
2023-04-06T00:40:06.249Z,6.90
2023-04-06T00:42:33.004Z,7.25
2023-04-06T00:45:01.674Z,6.90
2023-04-06T00:47:28.961Z,7.75
2023-04-06T00:49:56.249Z,6.70
2023-04-06T00:52:23.090Z,7.50
2023-04-06T00:54:50.974Z,7.72
2023-04-06T00:57:18.409Z,8.88
2023-04-06T00:59:45.958Z,8.63
2023-04-06T01:02:12.712Z,8.50
2023-04-06T01:04:39.490Z,7.80
2023-04-06T01:07:06.308Z,9.00
2023-04-06T01:09:32.977Z,8.40
2023-04-06T01:12:00.165Z,8.75
2023-04-06T01:14:27.031Z,8.68
2023-04-06T01:16:53.857Z,8.77
2023-04-06T01:19:21.960Z,10.32
2023-04-06T01:21:50.385Z,9.35
2023-04-06T01:24:17.506Z,10.63
2023-04-06T01:26:44.214Z,12.98
2023-04-06T01:29:11.030Z,13.90
2023-04-06T01:31:37.785Z,12.98
2023-04-06T01:34:04.693Z,12.70
2023-04-06T01:36:31.884Z,12.10
2023-04-06T01:38:58.611Z,10.80
2023-04-06T01:41:25.510Z,10.23
2023-04-06T01:43:55.454Z,11.00
2023-04-06T01:46:22.272Z,9.95
2023-04-06T01:48:48.905Z,9.57
2023-04-06T01:51:16.146Z,8.40
2023-04-06T01:53:42.904Z,8.27
2023-04-06T01:56:09.661Z,7.97
2023-04-06T01:58:36.669Z,9.02
2023-04-06T02:01:03.456Z,8.25
2023-04-06T02:03:30.211Z,8.40
2023-04-06T02:05:56.889Z,8.30
2023-04-06T02:08:23.584Z,7.65
2023-04-06T02:10:50.185Z,6.07
2023-04-06T02:13:16.894Z,6.47
2023-04-06T02:15:43.485Z,6.60
2023-04-06T02:18:11.125Z,7.13
2023-04-06T02:20:37.826Z,7.10
2023-04-06T02:23:04.630Z,6.70
2023-04-06T02:25:31.352Z,5.85
2023-04-06T02:27:57.945Z,6.03
2023-04-06T02:30:24.566Z,6.00
2023-04-06T02:32:51.346Z,6.32
2023-04-06T02:35:18.009Z,5.88
2023-04-06T02:37:44.712Z,6.47
2023-04-06T02:40:11.720Z,6.25
2023-04-06T02:42:38.342Z,5.93
2023-04-06T02:45:05.540Z,5.78
2023-04-06T02:47:32.335Z,6.03
2023-04-06T02:49:59.190Z,6.82
2023-04-06T02:52:26.041Z,5.97
2023-04-06T02:54:52.736Z,5.63
2023-04-06T02:57:19.652Z,5.93
2023-04-06T02:59:46.297Z,6.50
2023-04-06T03:02:12.970Z,5.55
2023-04-06T03:04:39.669Z,6.00
2023-04-06T03:07:06.287Z,6.20
2023-04-06T03:09:32.936Z,5.70
2023-04-06T03:11:59.532Z,5.65
2023-04-06T03:14:26.333Z,6.10
2023-04-06T03:16:52.937Z,6.18
2023-04-06T03:19:19.625Z,5.40
2023-04-06T03:21:46.712Z,5.65
2023-04-06T03:24:14.724Z,5.88
2023-04-06T03:26:41.504Z,6.05
2023-04-06T03:29:08.480Z,5.18
2023-04-06T03:31:35.349Z,5.35
2023-04-06T03:34:02.044Z,6.20
2023-04-06T03:36:28.707Z,6.10
2023-04-06T03:38:55.436Z,6.00
2023-04-06T03:41:22.536Z,6.60
2023-04-06T03:43:49.198Z,6.03
2023-04-06T03:46:15.893Z,6.72
2023-04-06T03:48:42.673Z,5.95
2023-04-06T03:51:09.324Z,6.75
2023-04-06T03:53:37.856Z,6.43
2023-04-06T03:56:05.101Z,7.10
2023-04-06T03:58:32.161Z,6.68
2023-04-06T04:00:58.793Z,6.88
2023-04-06T04:03:28.122Z,7.22
2023-04-06T04:05:56.570Z,6.43
2023-04-06T04:08:23.198Z,6.10
2023-04-06T04:10:49.842Z,7.78
2023-04-06T04:13:16.773Z,6.97
2023-04-06T04:15:43.441Z,6.68
2023-04-06T04:18:10.517Z,6.20
2023-04-06T04:20:37.165Z,6.43
2023-04-06T04:23:03.990Z,6.40
2023-04-06T04:25:30.769Z,7.15
2023-04-06T04:27:57.381Z,7.70
2023-04-06T04:30:24.007Z,7.70
2023-04-06T04:32:50.798Z,7.95
2023-04-06T04:35:17.432Z,6.97
2023-04-06T04:37:44.057Z,7.63
2023-04-06T04:40:11.597Z,7.80
2023-04-06T04:42:38.379Z,7.28
2023-04-06T04:45:05.510Z,6.47
2023-04-06T04:47:32.761Z,6.35
2023-04-06T04:49:59.454Z,6.45
2023-04-06T04:52:26.135Z,6.70
2023-04-06T04:54:52.788Z,6.53
2023-04-06T04:57:19.432Z,7.50
2023-04-06T04:59:46.324Z,6.57
2023-04-06T05:02:13.184Z,7.25
2023-04-06T05:04:39.989Z,7.78
2023-04-06T05:07:08.095Z,7.00
2023-04-06T05:09:34.745Z,6.57
2023-04-06T05:12:01.594Z,7.03
2023-04-06T05:14:28.945Z,7.38
2023-04-06T05:16:55.990Z,7.47
2023-04-06T05:19:22.592Z,7.55
2023-04-06T05:21:49.333Z,7.90
2023-04-06T05:24:16.427Z,8.05
2023-04-06T05:26:43.075Z,8.73
2023-04-06T05:29:09.977Z,10.50
2023-04-06T05:31:36.863Z,9.68
2023-04-06T05:34:03.804Z,10.07
2023-04-06T05:36:31.906Z,9.88
2023-04-06T05:38:59.147Z,11.15
2023-04-06T05:41:25.873Z,9.27
2023-04-06T05:43:52.623Z,10.63
2023-04-06T05:46:19.709Z,9.30
2023-04-06T05:48:46.757Z,9.55
2023-04-06T05:51:13.679Z,9.38
2023-04-06T05:53:40.300Z,10.10
2023-04-06T05:56:07.415Z,9.13
2023-04-06T05:58:34.088Z,9.48
2023-04-06T06:01:01.620Z,9.70
2023-04-06T06:03:28.396Z,11.00
2023-04-06T06:05:55.057Z,10.98
2023-04-06T06:08:21.690Z,10.10
2023-04-06T06:10:48.379Z,10.40
2023-04-06T06:13:15.024Z,10.30
2023-04-06T06:15:41.747Z,9.10
2023-04-06T06:18:08.548Z,8.25
2023-04-06T06:20:35.255Z,7.90
2023-04-06T06:23:01.983Z,7.80
2023-04-06T06:25:28.738Z,8.38
2023-04-06T06:27:55.328Z,7.72
2023-04-06T06:30:23.501Z,6.82
2023-04-06T06:32:51.378Z,6.45
2023-04-06T06:35:18.327Z,7.07
2023-04-06T06:37:44.953Z,6.60
2023-04-06T06:40:14.266Z,6.97
2023-04-06T06:42:41.064Z,6.68
2023-04-06T06:45:09.040Z,5.68
2023-04-06T06:47:35.753Z,5.82
2023-04-06T06:50:04.082Z,5.32
2023-04-06T06:52:31.024Z,6.30
2023-04-06T06:54:57.993Z,5.93
2023-04-06T06:57:24.606Z,6.13
2023-04-06T06:59:51.309Z,5.22
2023-04-06T07:02:17.909Z,5.25
2023-04-06T07:04:44.571Z,4.57
2023-04-06T07:07:11.302Z,4.63
2023-04-06T07:09:38.243Z,5.10
2023-04-06T07:12:04.896Z,4.53
2023-04-06T07:14:31.645Z,4.78
2023-04-06T07:16:58.349Z,5.28
2023-04-06T07:19:25.096Z,5.68
2023-04-06T07:21:51.923Z,5.07
2023-04-06T07:24:18.521Z,4.28
2023-04-06T07:26:45.297Z,4.03
2023-04-06T07:29:12.056Z,4.28
2023-04-06T07:31:38.692Z,4.10
2023-04-06T07:34:05.921Z,4.28
2023-04-06T07:36:32.803Z,3.70
2023-04-06T07:38:59.551Z,4.00
2023-04-06T07:41:26.671Z,3.55
2023-04-06T07:43:53.327Z,4.43
2023-04-06T07:46:19.962Z,3.90
2023-04-06T07:48:46.618Z,3.50
2023-04-06T07:51:15.329Z,3.92
2023-04-06T07:53:41.987Z,3.78
2023-04-06T07:56:08.601Z,4.35
2023-04-06T07:58:35.588Z,4.15
2023-04-06T08:01:03.261Z,3.35
2023-04-06T08:03:30.216Z,3.15
2023-04-06T08:05:57.302Z,3.35
2023-04-06T08:08:23.961Z,3.65
2023-04-06T08:10:50.859Z,3.10
2023-04-06T08:13:17.502Z,4.13
2023-04-06T08:15:44.456Z,3.45
2023-04-06T08:18:11.387Z,3.88
2023-04-06T08:20:38.083Z,3.35
2023-04-06T08:23:04.929Z,3.00
2023-04-06T08:25:31.663Z,3.33
2023-04-06T08:27:58.337Z,3.03
2023-04-06T08:30:25.104Z,2.95
2023-04-06T08:32:51.949Z,3.15
2023-04-06T08:35:18.732Z,2.97
2023-04-06T08:37:46.414Z,2.80
2023-04-06T08:40:13.987Z,3.15
2023-04-06T08:42:45.100Z,2.78
2023-04-06T08:45:12.397Z,2.90
2023-04-06T08:47:39.210Z,3.58
2023-04-06T08:50:06.425Z,3.55
2023-04-06T08:52:34.631Z,3.10
2023-04-06T08:55:01.900Z,3.10
2023-04-06T08:57:29.208Z,3.42
2023-04-06T08:59:57.303Z,2.90
2023-04-06T09:02:25.534Z,3.13
2023-04-06T09:04:54.970Z,2.63
2023-04-06T09:07:23.024Z,3.35
2023-04-06T09:09:49.775Z,3.25
2023-04-06T09:12:27.903Z,2.33
2023-04-06T09:14:55.450Z,2.20
2023-04-06T09:17:26.633Z,2.75
2023-04-06T09:19:53.549Z,3.10
2023-04-06T09:22:20.733Z,3.20
2023-04-06T09:24:49.780Z,2.90
2023-04-06T09:27:16.951Z,2.97
2023-04-06T09:29:44.798Z,3.03
2023-04-06T09:32:12.776Z,3.30
2023-04-06T09:34:40.322Z,2.70
2023-04-06T09:37:14.400Z,3.10
2023-04-06T09:39:41.483Z,2.88
2023-04-06T09:42:08.120Z,2.70
2023-04-06T09:44:34.758Z,3.10
2023-04-06T09:47:04.123Z,2.75
2023-04-06T09:49:32.980Z,2.78
2023-04-06T09:52:09.081Z,2.88
2023-04-06T09:54:36.804Z,2.47
2023-04-06T09:57:14.785Z,2.70
2023-04-06T10:00:01.708Z,2.53
2023-04-06T10:02:55.740Z,2.28
2023-04-06T10:05:41.138Z,2.42
2023-04-06T10:08:12.993Z,2.60
2023-04-06T10:10:39.876Z,2.45
2023-04-06T10:13:08.602Z,2.20
2023-04-06T10:15:35.544Z,2.33
2023-04-06T10:18:04.511Z,2.50
2023-04-06T10:20:42.971Z,2.42
2023-04-06T10:23:21.083Z,2.13
2023-04-06T10:25:55.950Z,2.08
2023-04-06T10:28:23.049Z,1.85
2023-04-06T10:30:49.871Z,2.20
2023-04-06T10:33:18.022Z,2.45
2023-04-06T10:35:45.274Z,2.40
2023-04-06T10:38:15.674Z,2.17
2023-04-06T10:40:48.009Z,2.13
2023-04-06T10:43:23.065Z,2.38
2023-04-06T10:45:58.138Z,2.03
2023-04-06T10:48:26.414Z,2.17
2023-04-06T10:50:53.907Z,1.60
2023-04-06T10:53:25.583Z,2.35
2023-04-06T10:55:54.030Z,2.10
2023-04-06T10:58:20.708Z,3.15
2023-04-06T11:00:51.519Z,2.70
2023-04-06T11:03:19.419Z,2.13
2023-04-06T11:05:52.427Z,1.92
2023-04-06T11:08:34.075Z,2.10
2023-04-06T11:11:07.506Z,2.20
2023-04-06T11:13:49.341Z,2.15
2023-04-06T11:16:18.622Z,2.25
2023-04-06T11:18:52.300Z,2.40
2023-04-06T11:21:44.541Z,2.22
2023-04-06T11:24:20.140Z,2.10
2023-04-06T11:26:52.274Z,2.35
2023-04-06T11:29:24.347Z,2.33
2023-04-06T11:31:58.688Z,2.28
2023-04-06T11:34:26.646Z,2.35
2023-04-06T11:36:58.268Z,1.77
2023-04-06T11:39:26.474Z,1.90
2023-04-06T11:42:01.509Z,2.28
2023-04-06T11:44:35.051Z,2.00
2023-04-06T11:47:06.471Z,1.75
2023-04-06T11:49:34.661Z,2.10
2023-04-06T11:52:02.083Z,2.10
2023-04-06T11:54:36.866Z,3.03
2023-04-06T11:57:04.466Z,2.15
2023-04-06T11:59:31.640Z,2.15
2023-04-06T12:01:58.945Z,1.90
2023-04-06T12:04:25.937Z,1.85
2023-04-06T12:06:52.738Z,3.00
2023-04-06T12:09:19.605Z,2.28
2023-04-06T12:11:46.495Z,2.15
2023-04-06T12:14:13.606Z,2.65
2023-04-06T12:16:40.804Z,2.00
2023-04-06T12:19:07.736Z,1.90
2023-04-06T12:21:37.289Z,2.35
2023-04-06T12:24:05.023Z,2.30
2023-04-06T12:26:32.097Z,2.45
2023-04-06T12:29:05.975Z,2.03
2023-04-06T12:31:32.816Z,2.10
2023-04-06T12:33:59.550Z,2.00
2023-04-06T12:36:26.284Z,2.22
2023-04-06T12:38:53.148Z,2.20
2023-04-06T12:41:19.806Z,2.45
2023-04-06T12:43:46.724Z,2.00
2023-04-06T12:46:13.830Z,2.20
2023-04-06T12:48:40.871Z,2.38
2023-04-06T12:51:08.065Z,2.10
2023-04-06T12:53:35.738Z,2.15
2023-04-06T12:56:03.652Z,2.15
2023-04-06T12:58:34.522Z,1.95
2023-04-06T13:01:04.060Z,1.73
2023-04-06T13:03:31.617Z,2.42
2023-04-06T13:06:00.316Z,2.00
2023-04-06T13:08:27.201Z,1.90
2023-04-06T13:10:54.523Z,2.13
2023-04-06T13:13:26.228Z,2.20
2023-04-06T13:15:54.182Z,2.15
2023-04-06T13:18:21.209Z,1.73
2023-04-06T13:20:48.775Z,1.80
2023-04-06T13:23:15.910Z,2.45
2023-04-06T13:25:42.828Z,2.45
2023-04-06T13:28:10.894Z,1.77
2023-04-06T13:30:37.973Z,2.42
2023-04-06T13:33:05.677Z,2.03
2023-04-06T13:35:33.885Z,2.13
2023-04-06T13:38:00.748Z,2.10
2023-04-06T13:40:27.405Z,1.90
2023-04-06T13:42:54.005Z,2.00
2023-04-06T13:45:20.903Z,1.73
2023-04-06T13:47:47.550Z,1.52
2023-04-06T13:50:14.163Z,1.83
2023-04-06T13:52:40.900Z,2.20
2023-04-06T13:55:07.928Z,1.88
2023-04-06T13:57:34.561Z,1.95
2023-04-06T14:00:02.896Z,1.88
2023-04-06T14:02:32.025Z,2.00
2023-04-06T14:04:58.867Z,1.88
2023-04-06T14:07:25.977Z,1.52
2023-04-06T14:09:52.629Z,1.95
2023-04-06T14:12:19.355Z,2.10
2023-04-06T14:14:46.009Z,2.15
2023-04-06T14:17:12.649Z,2.05
2023-04-06T14:19:39.626Z,2.03
2023-04-06T14:22:06.266Z,1.65
2023-04-06T14:24:32.897Z,1.60
2023-04-06T14:27:02.061Z,1.63
2023-04-06T14:29:28.687Z,2.17
2023-04-06T14:32:00.953Z,1.63
2023-04-06T14:34:28.499Z,1.73
2023-04-06T14:36:55.494Z,1.83
2023-04-06T14:39:22.838Z,2.20
2023-04-06T14:41:50.961Z,1.92
2023-04-06T14:44:17.811Z,2.00
2023-04-06T14:46:44.579Z,1.80
2023-04-06T14:49:11.505Z,2.20
2023-04-06T14:51:38.271Z,2.42
2023-04-06T14:54:05.163Z,2.20
2023-04-06T14:56:32.432Z,2.33
2023-04-06T14:59:02.704Z,2.17
2023-04-06T15:01:29.484Z,2.35
2023-04-06T15:03:56.384Z,2.20
2023-04-06T15:06:23.273Z,2.30
2023-04-06T15:08:50.943Z,2.00
2023-04-06T15:11:17.563Z,1.90
2023-04-06T15:13:44.441Z,1.98
2023-04-06T15:16:11.582Z,2.00
2023-04-06T15:18:38.268Z,2.08
2023-04-06T15:21:04.953Z,2.50
2023-04-06T15:23:31.782Z,3.00
2023-04-06T15:25:58.904Z,3.10
2023-04-06T15:28:25.840Z,2.90
2023-04-06T15:30:52.904Z,2.83
2023-04-06T15:33:21.188Z,2.20
2023-04-06T15:35:48.139Z,2.33
2023-04-06T15:38:15.201Z,2.15
2023-04-06T15:40:49.668Z,2.20
2023-04-06T15:43:17.210Z,2.38
2023-04-06T15:45:44.142Z,2.33
2023-04-06T15:48:11.451Z,2.80
2023-04-06T15:50:38.253Z,2.53
2023-04-06T15:53:04.892Z,2.83
2023-04-06T15:55:31.519Z,2.67
2023-04-06T15:57:58.172Z,2.78
2023-04-06T16:00:25.417Z,2.72
2023-04-06T16:02:52.446Z,2.50
2023-04-06T16:05:19.421Z,2.50
2023-04-06T16:07:46.196Z,2.42
2023-04-06T16:10:12.821Z,2.78
2023-04-06T16:12:42.349Z,2.22
2023-04-06T16:15:09.965Z,2.50
2023-04-06T16:17:36.650Z,2.35
2023-04-06T16:20:03.835Z,2.63
2023-04-06T16:22:31.965Z,2.60
2023-04-06T16:24:58.617Z,2.20
2023-04-06T16:27:25.630Z,2.35
2023-04-06T16:29:52.451Z,2.55
2023-04-06T16:32:19.178Z,2.85
2023-04-06T16:34:47.283Z,2.65
2023-04-06T16:37:14.058Z,2.20
2023-04-06T16:39:40.752Z,2.55
2023-04-06T16:42:07.510Z,2.50
2023-04-06T16:44:34.131Z,2.38
2023-04-06T16:47:01.018Z,2.55
2023-04-06T16:49:27.995Z,2.90
2023-04-06T16:51:54.653Z,2.95
2023-04-06T16:54:21.276Z,3.10
2023-04-06T16:56:47.979Z,3.08
2023-04-06T16:59:14.768Z,3.42
2023-04-06T17:01:41.911Z,3.45
2023-04-06T17:04:09.015Z,3.10
2023-04-06T17:06:35.919Z,3.67
2023-04-06T17:09:02.715Z,3.17
2023-04-06T17:11:39.906Z,2.95
2023-04-06T17:14:13.225Z,3.67
2023-04-06T17:16:39.869Z,3.38
2023-04-06T17:19:07.749Z,3.92
2023-04-06T17:21:34.450Z,3.63
2023-04-06T17:24:01.084Z,3.40
2023-04-06T17:26:27.738Z,3.30
2023-04-06T17:28:54.353Z,4.07
2023-04-06T17:31:22.474Z,3.88
2023-04-06T17:33:49.733Z,3.55
2023-04-06T17:36:16.499Z,3.58
2023-04-06T17:38:44.317Z,4.20
2023-04-06T17:41:12.628Z,4.00
2023-04-06T17:43:40.032Z,4.65
2023-04-06T17:46:06.788Z,4.88
2023-04-06T17:48:34.119Z,4.72
2023-04-06T17:51:00.743Z,4.40
2023-04-06T17:53:30.586Z,4.25
2023-04-06T17:55:57.389Z,4.68
2023-04-06T17:58:24.496Z,4.40
2023-04-06T18:00:51.197Z,4.38
2023-04-06T18:03:17.821Z,4.32
2023-04-06T18:05:44.462Z,4.00
2023-04-06T18:08:12.695Z,4.80
2023-04-06T18:10:39.695Z,4.75
2023-04-06T18:13:07.137Z,5.00
2023-04-06T18:15:36.013Z,4.57
2023-04-06T18:18:02.775Z,4.68
2023-04-06T18:20:29.751Z,5.07
2023-04-06T18:22:56.621Z,5.07
2023-04-06T18:25:25.279Z,5.20
2023-04-06T18:27:52.042Z,5.38
2023-04-06T18:30:19.991Z,5.32
2023-04-06T18:32:46.715Z,5.43
2023-04-06T18:35:14.333Z,5.25
2023-04-06T18:37:41.070Z,5.30
2023-04-06T18:40:08.200Z,5.57
2023-04-06T18:42:35.781Z,5.57
2023-04-06T18:45:02.544Z,5.00
2023-04-06T18:47:29.217Z,5.82
2023-04-06T18:49:57.892Z,5.93
2023-04-06T18:52:24.497Z,6.07
2023-04-06T18:54:51.131Z,5.97
2023-04-06T18:57:17.731Z,5.97
2023-04-06T18:59:44.707Z,6.05
2023-04-06T19:02:14.322Z,6.65
2023-04-06T19:04:41.533Z,6.32
2023-04-06T19:07:08.366Z,6.20
2023-04-06T19:09:35.307Z,6.68
2023-04-06T19:12:01.973Z,6.25
2023-04-06T19:14:32.520Z,6.18
2023-04-06T19:16:59.238Z,5.57
2023-04-06T19:19:25.939Z,6.57
2023-04-06T19:21:52.649Z,6.05
2023-04-06T19:24:19.467Z,5.72
2023-04-06T19:26:46.268Z,5.47
2023-04-06T19:29:12.882Z,5.47
2023-04-06T19:31:39.651Z,6.10
2023-04-06T19:34:06.826Z,6.18
2023-04-06T19:36:33.787Z,5.75
2023-04-06T19:39:00.811Z,6.22
2023-04-06T19:41:27.615Z,6.30
2023-04-06T19:43:54.284Z,5.68
2023-04-06T19:46:21.631Z,6.25
2023-04-06T19:48:48.560Z,6.78
2023-04-06T19:51:15.443Z,6.32
2023-04-06T19:53:42.118Z,5.35
2023-04-06T19:56:10.233Z,6.13
2023-04-06T19:58:38.464Z,6.57
2023-04-06T20:01:05.339Z,5.72
2023-04-06T20:03:32.741Z,7.25
2023-04-06T20:05:59.889Z,6.60
2023-04-06T20:08:26.614Z,7.22
2023-04-06T20:10:59.710Z,7.65
2023-04-06T20:13:26.432Z,8.20
2023-04-06T20:15:53.175Z,8.20
2023-04-06T20:18:19.838Z,9.07
2023-04-06T20:20:46.930Z,8.43
2023-04-06T20:23:13.723Z,8.85
2023-04-06T20:25:40.510Z,9.57
2023-04-06T20:28:08.066Z,12.30
2023-04-06T20:30:35.485Z,13.77
2023-04-06T20:33:02.547Z,12.95
2023-04-06T20:35:29.252Z,11.40
2023-04-06T20:37:56.630Z,12.48
2023-04-06T20:40:23.817Z,12.30
2023-04-06T20:42:53.799Z,11.93
2023-04-06T20:45:20.408Z,9.38
2023-04-06T20:47:47.181Z,7.97
2023-04-06T20:50:14.086Z,8.63
2023-04-06T20:52:40.816Z,8.00
2023-04-06T20:55:08.066Z,7.40
2023-04-06T20:57:34.768Z,8.25
2023-04-06T21:00:01.693Z,7.43
2023-04-06T21:02:28.608Z,7.60
2023-04-06T21:04:55.657Z,7.72
2023-04-06T21:07:22.287Z,8.02
2023-04-06T21:09:48.976Z,7.53
2023-04-06T21:12:15.682Z,7.78
2023-04-06T21:14:43.005Z,8.10
2023-04-06T21:17:09.654Z,7.75
2023-04-06T21:19:36.322Z,7.72
2023-04-06T21:22:03.038Z,7.57
2023-04-06T21:24:29.690Z,8.20
2023-04-06T21:26:56.340Z,8.77
2023-04-06T21:29:22.998Z,8.27
2023-04-06T21:31:49.634Z,8.20
2023-04-06T21:34:16.698Z,8.90
2023-04-06T21:36:43.645Z,8.05
2023-04-06T21:39:10.477Z,8.55
2023-04-06T21:41:37.321Z,9.55
2023-04-06T21:44:04.276Z,8.18
2023-04-06T21:46:31.014Z,9.38
2023-04-06T21:48:57.856Z,8.77
2023-04-06T21:51:24.598Z,8.98
2023-04-06T21:53:52.758Z,9.35
2023-04-06T21:56:26.208Z,9.18
2023-04-06T21:58:53.523Z,8.95
2023-04-06T22:01:20.915Z,9.68
2023-04-06T22:03:48.606Z,9.45
2023-04-06T22:06:15.795Z,10.45
2023-04-06T22:08:42.836Z,9.73
2023-04-06T22:11:11.529Z,9.45
2023-04-06T22:13:38.917Z,8.75
2023-04-06T22:16:06.490Z,10.10
2023-04-06T22:18:33.538Z,10.52
2023-04-06T22:21:01.032Z,9.93
2023-04-06T22:23:27.674Z,10.93
2023-04-06T22:25:54.474Z,9.10
2023-04-06T22:28:21.071Z,10.05
2023-04-06T22:30:47.807Z,9.13
2023-04-06T22:33:14.478Z,9.52
2023-04-06T22:35:41.256Z,9.77
2023-04-06T22:38:08.176Z,10.30
2023-04-06T22:40:34.796Z,9.25
2023-04-06T22:43:01.424Z,9.00
2023-04-06T22:45:28.111Z,9.88
2023-04-06T22:47:54.798Z,9.30
2023-04-06T22:50:21.927Z,9.95
2023-04-06T22:52:48.758Z,9.57
2023-04-06T22:55:15.716Z,9.18
2023-04-06T22:57:42.471Z,9.90
2023-04-06T23:00:09.996Z,9.75
2023-04-06T23:02:36.784Z,9.45
2023-04-06T23:05:03.653Z,9.85
2023-04-06T23:07:32.681Z,10.80
2023-04-06T23:09:59.531Z,10.30
2023-04-06T23:12:26.490Z,9.70
2023-04-06T23:14:53.448Z,10.13
2023-04-06T23:17:20.253Z,10.40
2023-04-06T23:19:47.171Z,9.88
2023-04-06T23:22:14.059Z,10.40
2023-04-06T23:24:40.878Z,10.18
2023-04-06T23:27:07.676Z,11.13
2023-04-06T23:29:34.323Z,10.05
2023-04-06T23:32:01.381Z,10.52
2023-04-06T23:34:28.147Z,10.85
2023-04-06T23:36:55.098Z,11.18
2023-04-06T23:39:21.864Z,11.65
2023-04-06T23:41:48.582Z,11.27
2023-04-06T23:44:15.311Z,10.65
2023-04-06T23:46:41.991Z,10.73
2023-04-06T23:49:08.721Z,11.57
2023-04-06T23:51:35.444Z,11.57
2023-04-06T23:54:02.279Z,11.52
2023-04-06T23:56:31.559Z,11.60
2023-04-06T23:58:58.490Z,11.00
